createdAt,value
2022-08-07T00:02:35.585Z,99379.19
2022-08-07T00:04:09.391Z,99379.66
2022-08-07T00:06:51.109Z,99374.16
2022-08-07T00:09:22.615Z,99377.13
2022-08-07T00:11:56.166Z,99377.94
2022-08-07T00:14:31.292Z,99377.88
2022-08-07T00:17:03.292Z,99381.56
2022-08-07T00:19:59.649Z,99383.94
2022-08-07T00:22:24.670Z,99378.53
2022-08-07T00:25:15.788Z,99372.13
2022-08-07T00:27:52.440Z,99385.31
2022-08-07T00:30:27.249Z,99388.31
2022-08-07T00:33:02.849Z,99392.16
2022-08-07T00:35:30.676Z,99390.88
2022-08-07T00:38:02.102Z,99390.28
2022-08-07T00:40:39.704Z,99386.38
2022-08-07T00:44:00.948Z,99396.59
2022-08-07T00:46:02.546Z,99395.75
2022-08-07T00:48:31.960Z,99402.66
2022-08-07T00:51:02.888Z,99405.19
2022-08-07T00:53:39.101Z,99395.94
2022-08-07T00:56:17.591Z,99390.38
2022-08-07T00:58:47.081Z,99390.44
2022-08-07T01:01:16.278Z,99390.38
2022-08-07T01:03:56.904Z,99384.38
2022-08-07T01:06:30.032Z,99387.25
2022-08-07T01:09:01.166Z,99387.22
2022-08-07T01:12:23.970Z,99388.81
2022-08-07T01:14:28.487Z,99392.28
2022-08-07T01:16:57.395Z,99383.91
2022-08-07T01:19:27.007Z,99373.94
2022-08-07T01:21:59.862Z,99378.66
2022-08-07T01:24:30.676Z,99373.22
2022-08-07T01:26:58.513Z,99374.00
2022-08-07T01:29:31.300Z,99377.88
2022-08-07T01:32:05.480Z,99378.94
2022-08-07T01:34:39.344Z,99373.94
2022-08-07T01:37:09.538Z,99375.66
2022-08-07T01:39:41.246Z,99377.97
2022-08-07T01:42:38.292Z,99380.13
2022-08-07T01:45:09.727Z,99375.72
2022-08-07T01:48:20.647Z,99362.13
2022-08-07T01:50:32.735Z,99363.56
2022-08-07T01:53:08.661Z,99364.91
2022-08-07T01:56:06.664Z,99379.31
2022-08-07T01:58:45.235Z,99371.59
2022-08-07T02:01:58.739Z,99366.44
2022-08-07T02:04:30.379Z,99380.38
2022-08-07T02:07:03.641Z,99379.19
2022-08-07T02:09:52.402Z,99373.41
2022-08-07T02:12:31.064Z,99372.28
2022-08-07T02:15:01.498Z,99375.88
2022-08-07T02:17:35.131Z,99386.66
2022-08-07T02:20:17.228Z,99388.31
2022-08-07T02:22:47.904Z,99388.38
2022-08-07T02:26:10.405Z,99391.25
2022-08-07T02:28:14.505Z,99385.19
2022-08-07T02:30:54.308Z,99391.50
2022-08-07T02:33:42.110Z,99388.19
2022-08-07T02:36:30.728Z,99382.59
2022-08-07T02:39:16.684Z,99387.94
2022-08-07T02:41:54.905Z,99383.59
2022-08-07T02:44:27.760Z,99393.59
2022-08-07T02:47:04.368Z,99381.16
2022-08-07T02:49:57.550Z,99377.22
2022-08-07T02:52:31.951Z,99366.38
2022-08-07T02:55:15.613Z,99380.50
2022-08-07T02:58:03.267Z,99368.13
2022-08-07T03:00:35.522Z,99371.22
2022-08-07T03:03:08.094Z,99375.88
2022-08-07T03:05:42.633Z,99367.03
2022-08-07T03:08:11.580Z,99380.28
2022-08-07T03:10:40.670Z,99373.56
2022-08-07T03:13:09.081Z,99370.03
2022-08-07T03:15:55.534Z,99361.63
2022-08-07T03:18:34.275Z,99356.59
2022-08-07T03:21:08.797Z,99359.34
2022-08-07T03:24:20.897Z,99356.00
2022-08-07T03:29:03.345Z,99351.28
2022-08-07T03:31:43.476Z,99361.84
2022-08-07T03:34:18.462Z,99358.19
2022-08-07T03:36:51.881Z,99343.34
2022-08-07T03:39:59.884Z,99357.38
2022-08-07T03:42:10.067Z,99352.34
2022-08-07T03:44:38.903Z,99358.19
2022-08-07T03:47:13.802Z,99349.06
2022-08-07T03:49:47.656Z,99345.50
2022-08-07T03:52:27.772Z,99356.00
2022-08-07T03:55:07.348Z,99354.94
2022-08-07T03:58:34.438Z,99358.84
2022-08-07T04:00:29.112Z,99362.19
2022-08-07T04:03:03.862Z,99359.16
2022-08-07T04:05:39.801Z,99360.56
2022-08-07T04:08:20.925Z,99362.19
2022-08-07T04:10:53.857Z,99366.28
2022-08-07T04:13:27.729Z,99375.84
2022-08-07T04:15:55.700Z,99370.97
2022-08-07T04:18:56.509Z,99367.84
2022-08-07T04:21:12.666Z,99379.63
2022-08-07T04:24:03.326Z,99374.91
2022-08-07T04:26:32.032Z,99368.25
2022-08-07T04:28:59.660Z,99381.72
2022-08-07T04:31:38.689Z,99377.06
2022-08-07T04:34:23.913Z,99385.09
2022-08-07T04:36:55.208Z,99388.69
2022-08-07T04:39:25.953Z,99381.75
2022-08-07T04:41:53.828Z,99375.88
2022-08-07T04:44:21.561Z,99396.91
2022-08-07T04:47:08.074Z,99390.00
2022-08-07T04:50:03.667Z,99379.53
2022-08-07T04:52:52.477Z,99396.06
2022-08-07T04:58:13.256Z,99391.31
2022-08-07T05:02:04.519Z,99407.50
2022-08-07T05:05:01.286Z,99397.38
2022-08-07T05:07:48.358Z,99395.75
2022-08-07T05:10:29.908Z,99400.13
2022-08-07T05:14:52.820Z,99403.81
2022-08-07T05:16:21.267Z,99393.50
2022-08-07T05:19:02.921Z,99399.81
2022-08-07T05:21:59.900Z,99408.00
2022-08-07T05:24:24.623Z,99402.88
2022-08-07T05:27:01.036Z,99396.75
2022-08-07T05:29:48.043Z,99416.03
2022-08-07T05:32:19.628Z,99400.72
2022-08-07T05:34:49.724Z,99421.16
2022-08-07T05:37:25.277Z,99409.34
2022-08-07T05:40:06.793Z,99413.09
2022-08-07T05:42:41.225Z,99418.91
2022-08-07T05:45:14.602Z,99415.63
2022-08-07T05:48:01.157Z,99413.28
2022-08-07T05:50:34.249Z,99421.50
2022-08-07T05:53:05.033Z,99427.03
2022-08-07T05:56:02.184Z,99423.91
2022-08-07T05:58:36.853Z,99426.59
2022-08-07T06:01:10.485Z,99420.78
2022-08-07T06:03:56.848Z,99432.38
2022-08-07T06:06:29.888Z,99429.88
2022-08-07T06:09:01.411Z,99431.75
2022-08-07T06:11:34.391Z,99434.00
2022-08-07T06:14:12.339Z,99433.16
2022-08-07T06:16:45.613Z,99437.75
2022-08-07T06:19:52.253Z,99437.47
2022-08-07T06:22:15.816Z,99436.88
2022-08-07T06:24:58.331Z,99417.41
2022-08-07T06:27:59.990Z,99426.50
2022-08-07T06:30:36.021Z,99423.69
2022-08-07T06:33:05.772Z,99426.94
2022-08-07T06:35:47.824Z,99434.66
2022-08-07T06:38:30.977Z,99435.59
2022-08-07T06:41:03.162Z,99441.41
2022-08-07T06:43:39.807Z,99444.06
2022-08-07T06:46:12.140Z,99441.06
2022-08-07T06:48:41.973Z,99449.81
2022-08-07T06:51:31.170Z,99449.41
2022-08-07T06:55:28.604Z,99463.16
2022-08-07T06:56:52.111Z,99452.00
2022-08-07T07:00:17.545Z,99455.84
2022-08-07T07:02:53.390Z,99458.34
2022-08-07T07:05:13.574Z,99457.41
2022-08-07T07:08:06.427Z,99445.69
2022-08-07T07:10:35.965Z,99451.63
2022-08-07T07:13:56.498Z,99447.91
2022-08-07T07:16:19.514Z,99438.34
2022-08-07T07:18:55.014Z,99448.88
2022-08-07T07:22:05.191Z,99444.59
2022-08-07T07:24:18.349Z,99440.53
2022-08-07T07:26:51.711Z,99435.44
2022-08-07T07:29:40.315Z,99428.81
2022-08-07T07:32:04.958Z,99445.56
2022-08-07T07:34:35.384Z,99435.50
2022-08-07T07:37:21.781Z,99447.13
2022-08-07T07:40:03.316Z,99432.28
2022-08-07T07:42:39.341Z,99424.16
2022-08-07T07:45:09.052Z,99432.50
2022-08-07T07:47:52.627Z,99419.78
2022-08-07T07:50:35.021Z,99424.66
2022-08-07T07:53:13.660Z,99434.84
2022-08-07T07:55:57.806Z,99427.22
2022-08-07T07:58:40.250Z,99443.59
2022-08-07T08:02:01.737Z,99430.63
2022-08-07T08:04:09.522Z,99445.66
2022-08-07T08:06:50.902Z,99438.34
2022-08-07T08:09:29.131Z,99437.28
2022-08-07T08:12:01.614Z,99430.66
2022-08-07T08:14:36.008Z,99431.75
2022-08-07T08:17:14.201Z,99435.06
2022-08-07T08:20:18.691Z,99428.66
2022-08-07T08:23:14.254Z,99432.28
2022-08-07T08:26:06.825Z,99432.47
2022-08-07T08:28:43.364Z,99439.28
2022-08-07T08:31:30.211Z,99434.81
2022-08-07T08:34:19.003Z,99425.88
2022-08-07T08:36:58.507Z,99428.16
2022-08-07T08:39:39.408Z,99431.75
2022-08-07T08:42:40.520Z,99441.53
2022-08-07T08:45:58.742Z,99442.06
2022-08-07T08:49:19.275Z,99434.03
2022-08-07T08:52:14.096Z,99428.47
2022-08-07T08:54:56.089Z,99438.47
2022-08-07T08:57:52.922Z,99445.91
2022-08-07T09:00:21.601Z,99447.13
2022-08-07T09:03:47.450Z,99450.72
2022-08-07T09:06:37.008Z,99453.28
2022-08-07T09:09:47.464Z,99450.09
2022-08-07T09:12:32.322Z,99450.09
2022-08-07T09:16:22.377Z,99448.16
2022-08-07T09:19:52.214Z,99445.66
2022-08-07T09:24:32.369Z,99452.44
2022-08-07T09:26:13.270Z,99438.88
2022-08-07T09:30:05.704Z,99448.44
2022-08-07T09:31:54.916Z,99441.94
2022-08-07T09:36:05.187Z,99438.13
2022-08-07T09:38:12.180Z,99438.34
2022-08-07T09:41:03.523Z,99438.88
2022-08-07T09:44:19.428Z,99427.94
2022-08-07T09:50:23.360Z,99425.22
2022-08-07T09:53:02.379Z,99424.53
2022-08-07T09:56:02.479Z,99420.88
2022-08-07T10:01:57.997Z,99416.91
2022-08-07T10:05:16.137Z,99418.75
2022-08-07T10:08:10.412Z,99411.69
2022-08-07T10:12:01.104Z,99404.66
2022-08-07T10:14:22.979Z,99404.94
2022-08-07T10:17:27.359Z,99412.34
2022-08-07T10:20:30.263Z,99410.56
2022-08-07T10:24:05.621Z,99400.66
2022-08-07T10:27:46.022Z,99403.16
2022-08-07T10:30:20.681Z,99402.75
2022-08-07T10:34:13.967Z,99384.63
2022-08-07T10:38:00.398Z,99386.53
2022-08-07T10:40:37.025Z,99383.63
2022-08-07T10:43:39.065Z,99380.56
2022-08-07T10:46:16.022Z,99378.59
2022-08-07T10:48:51.299Z,99378.50
2022-08-07T10:52:02.339Z,99373.56
2022-08-07T10:55:01.346Z,99371.66
2022-08-07T10:57:56.562Z,99366.78
2022-08-07T11:00:36.910Z,99353.81
2022-08-07T11:03:17.474Z,99369.25
2022-08-07T11:06:04.863Z,99363.53
2022-08-07T11:08:53.423Z,99374.03
2022-08-07T11:11:51.885Z,99365.31
2022-08-07T11:15:00.111Z,99354.66
2022-08-07T11:18:04.729Z,99355.28
2022-08-07T11:20:43.746Z,99351.03
2022-08-07T11:23:48.435Z,99355.91
2022-08-07T11:26:48.331Z,99348.19
2022-08-07T11:32:13.696Z,99338.81
2022-08-07T11:35:04.440Z,99334.53
2022-08-07T11:38:12.428Z,99338.03
2022-08-07T11:40:56.628Z,99344.44
2022-08-07T11:43:54.409Z,99345.84
2022-08-07T11:46:48.687Z,99330.94
2022-08-07T11:50:31.948Z,99331.63
2022-08-07T11:53:35.124Z,99323.25
2022-08-07T11:56:27.220Z,99324.56
2022-08-07T12:00:11.063Z,99323.13
2022-08-07T12:02:52.107Z,99320.50
2022-08-07T12:05:48.895Z,99319.84
2022-08-07T12:08:26.047Z,99323.13
2022-08-07T12:11:43.196Z,99309.81
2022-08-07T12:14:56.375Z,99319.53
2022-08-07T12:17:58.644Z,99326.56
2022-08-07T12:22:36.373Z,99321.00
2022-08-07T12:26:00.334Z,99309.03
2022-08-07T12:28:09.769Z,99303.44
2022-08-07T12:30:46.935Z,99306.03
2022-08-07T12:33:30.691Z,99308.03
2022-08-07T12:36:15.918Z,99313.25
2022-08-07T12:38:57.051Z,99303.91
2022-08-07T12:41:29.193Z,99306.53
2022-08-07T12:44:17.340Z,99312.28
2022-08-07T12:47:03.290Z,99301.13
2022-08-07T12:49:50.978Z,99309.50
2022-08-07T12:52:35.452Z,99307.84
2022-08-07T12:55:24.907Z,99301.13
2022-08-07T12:58:13.194Z,99313.44
2022-08-07T13:01:08.053Z,99298.31
2022-08-07T13:03:59.365Z,99301.78
2022-08-07T13:08:14.139Z,99304.22
2022-08-07T13:10:39.701Z,99299.66
2022-08-07T13:13:47.352Z,99296.53
2022-08-07T13:16:29.449Z,99292.91
2022-08-07T13:19:50.942Z,99296.69
2022-08-07T13:22:33.160Z,99293.91
2022-08-07T13:25:24.216Z,99288.81
2022-08-07T13:28:12.829Z,99287.66
2022-08-07T13:30:53.273Z,99286.69
2022-08-07T13:34:31.278Z,99284.22
2022-08-07T13:37:19.816Z,99283.22
2022-08-07T13:40:36.188Z,99277.81
2022-08-07T13:43:16.166Z,99280.78
2022-08-07T13:46:11.255Z,99279.13
2022-08-07T13:48:51.873Z,99263.34
2022-08-07T13:52:04.896Z,99265.66
2022-08-07T13:54:23.543Z,99266.50
2022-08-07T13:56:59.555Z,99255.16
2022-08-07T13:59:31.621Z,99255.47
2022-08-07T14:02:10.123Z,99252.38
2022-08-07T14:04:54.692Z,99249.22
2022-08-07T14:07:33.587Z,99247.09
2022-08-07T14:10:16.486Z,99238.72
2022-08-07T14:12:56.860Z,99245.13
2022-08-07T14:15:43.756Z,99237.56
2022-08-07T14:18:37.088Z,99240.19
2022-08-07T14:22:01.166Z,99233.63
2022-08-07T14:24:41.318Z,99242.50
2022-08-07T14:28:09.432Z,99233.81
2022-08-07T14:30:12.379Z,99240.69
2022-08-07T14:32:45.794Z,99235.94
2022-08-07T14:35:43.387Z,99239.03
2022-08-07T14:38:26.231Z,99236.09
2022-08-07T14:43:57.950Z,99241.84
2022-08-07T14:46:31.493Z,99230.34
2022-08-07T14:49:17.466Z,99231.66
2022-08-07T14:52:02.862Z,99216.38
2022-08-07T14:54:41.645Z,99232.97
2022-08-07T14:57:19.513Z,99217.88
2022-08-07T15:02:39.087Z,99221.31
2022-08-07T15:05:20.068Z,99232.47
2022-08-07T15:07:52.054Z,99225.09
2022-08-07T15:10:29.601Z,99226.56
2022-08-07T15:13:06.339Z,99221.66
2022-08-07T15:15:52.585Z,99216.22
2022-08-07T15:21:58.496Z,99213.91
2022-08-07T15:25:15.715Z,99223.28
2022-08-07T15:27:29.986Z,99221.31
2022-08-07T15:30:16.146Z,99213.91
2022-08-07T15:33:01.392Z,99210.13
2022-08-07T15:36:01.147Z,99213.75
2022-08-07T15:38:33.257Z,99216.72
2022-08-07T15:41:24.327Z,99206.88
2022-08-07T15:44:10.781Z,99221.97
2022-08-07T15:46:51.844Z,99204.72
2022-08-07T15:50:06.133Z,99199.78
2022-08-07T15:52:30.447Z,99203.91
2022-08-07T15:55:03.570Z,99205.22
2022-08-07T15:57:40.338Z,99210.47
2022-08-07T16:00:31.449Z,99198.34
2022-08-07T16:03:22.019Z,99207.53
2022-08-07T16:05:59.179Z,99194.38
2022-08-07T16:08:38.211Z,99202.44
2022-08-07T16:11:26.761Z,99211.63
2022-08-07T16:14:20.615Z,99208.16
2022-08-07T16:17:16.218Z,99203.91
2022-08-07T16:20:37.511Z,99192.91
2022-08-07T16:23:52.202Z,99195.69
2022-08-07T16:26:31.007Z,99201.09
2022-08-07T16:30:10.267Z,99195.97
2022-08-07T16:32:34.972Z,99194.53
2022-08-07T16:35:59.446Z,99184.50
2022-08-07T16:38:10.297Z,99187.28
2022-08-07T16:41:02.417Z,99176.44
2022-08-07T16:44:53.872Z,99180.53
2022-08-07T16:47:51.439Z,99194.97
2022-08-07T16:51:20.975Z,99190.72
2022-08-07T16:54:09.300Z,99192.19
2022-08-07T16:56:40.687Z,99187.91
2022-08-07T16:59:23.069Z,99171.84
2022-08-07T17:02:52.957Z,99185.44
2022-08-07T17:06:19.572Z,99181.34
2022-08-07T17:09:10.477Z,99190.84
2022-08-07T17:12:04.523Z,99196.75
2022-08-07T17:14:54.173Z,99192.66
2022-08-07T17:17:44.261Z,99205.47
2022-08-07T17:20:37.801Z,99201.03
2022-08-07T17:23:31.880Z,99208.22
2022-08-07T17:26:48.215Z,99202.09
2022-08-07T17:30:14.284Z,99207.19
2022-08-07T17:32:51.839Z,99202.09
2022-08-07T17:35:54.962Z,99209.47
2022-08-07T17:38:52.458Z,99198.91
2022-08-07T17:42:04.072Z,99209.72
2022-08-07T17:44:49.790Z,99211.50
2022-08-07T17:47:45.694Z,99205.59
2022-08-07T17:50:52.576Z,99208.19
2022-08-07T17:54:02.354Z,99210.38
2022-08-07T17:56:49.644Z,99202.59
2022-08-07T17:59:45.554Z,99213.28
2022-08-07T18:02:34.255Z,99220.81
2022-08-07T18:05:21.668Z,99212.72
2022-08-07T18:08:24.282Z,99217.34
2022-08-07T18:12:07.026Z,99222.91
2022-08-07T18:14:24.147Z,99220.25
2022-08-07T18:18:46.567Z,99233.00
2022-08-07T18:21:07.391Z,99225.13
2022-08-07T18:23:43.704Z,99231.66
2022-08-07T18:26:20.457Z,99234.63
2022-08-07T18:30:06.227Z,99234.63
2022-08-07T18:32:17.221Z,99244.44
2022-08-07T18:35:21.825Z,99236.41
2022-08-07T18:38:56.752Z,99238.81
2022-08-07T18:41:37.743Z,99238.31
2022-08-07T18:45:39.621Z,99246.38
2022-08-07T18:48:00.495Z,99241.75
2022-08-07T18:50:45.619Z,99249.81
2022-08-07T18:53:16.701Z,99257.53
2022-08-07T18:55:57.150Z,99262.16
2022-08-07T18:58:52.308Z,99263.09
2022-08-07T19:02:20.181Z,99270.84
2022-08-07T19:04:57.472Z,99262.25
2022-08-07T19:07:57.735Z,99269.28
2022-08-07T19:10:49.799Z,99272.28
2022-08-07T19:13:50.293Z,99268.47
2022-08-07T19:17:07.645Z,99264.69
2022-08-07T19:20:28.966Z,99269.09
2022-08-07T19:23:18.389Z,99263.22
2022-08-07T19:26:23.263Z,99261.19
2022-08-07T19:30:57.411Z,99265.25
2022-08-07T19:32:07.837Z,99264.13
2022-08-07T19:34:55.373Z,99264.91
2022-08-07T19:37:24.045Z,99266.91
2022-08-07T19:40:14.198Z,99273.41
2022-08-07T19:42:43.615Z,99276.50
2022-08-07T19:45:21.711Z,99276.31
2022-08-07T19:48:18.799Z,99283.53
2022-08-07T19:50:53.286Z,99274.00
2022-08-07T19:54:31.355Z,99279.56
2022-08-07T19:57:51.359Z,99285.16
2022-08-07T19:59:03.564Z,99283.63
2022-08-07T20:01:52.803Z,99291.97
2022-08-07T20:04:31.798Z,99293.41
2022-08-07T20:07:00.684Z,99292.41
2022-08-07T20:10:35.351Z,99295.00
2022-08-07T20:12:31.901Z,99300.25
2022-08-07T20:15:04.745Z,99292.53
2022-08-07T20:17:38.638Z,99300.28
2022-08-07T20:20:09.137Z,99291.63
2022-08-07T20:22:41.437Z,99295.97
2022-08-07T20:25:19.321Z,99314.81
2022-08-07T20:27:54.293Z,99304.81
2022-08-07T20:30:33.274Z,99314.00
2022-08-07T20:33:03.352Z,99315.13
2022-08-07T20:35:51.783Z,99312.66
2022-08-07T20:38:24.609Z,99314.09
2022-08-07T20:40:57.946Z,99308.63
2022-08-07T20:43:29.388Z,99300.91
2022-08-07T20:46:29.107Z,99301.22
2022-08-07T20:49:54.480Z,99300.72
2022-08-07T20:51:40.722Z,99298.84
2022-08-07T20:54:30.127Z,99302.44
2022-08-07T20:57:03.824Z,99296.69
2022-08-07T21:00:06.736Z,99297.28
2022-08-07T21:02:54.400Z,99303.38
2022-08-07T21:05:52.467Z,99307.91
2022-08-07T21:08:37.599Z,99316.53
2022-08-07T21:11:14.376Z,99308.81
2022-08-07T21:14:16.743Z,99311.91
2022-08-07T21:17:06.394Z,99300.69
2022-08-07T21:19:51.798Z,99307.91
2022-08-07T21:22:34.764Z,99304.19
2022-08-07T21:25:29.135Z,99317.78
2022-08-07T21:28:48.763Z,99310.38
2022-08-07T21:32:41.918Z,99320.16
2022-08-07T21:34:46.101Z,99315.72
2022-08-07T21:37:58.864Z,99323.22
2022-08-07T21:40:44.227Z,99313.56
2022-08-07T21:43:55.508Z,99318.69
2022-08-07T21:46:38.636Z,99315.91
2022-08-07T21:50:01.053Z,99320.75
2022-08-07T21:52:50.545Z,99321.66
2022-08-07T21:55:30.373Z,99326.69
2022-08-07T21:58:29.907Z,99322.50
2022-08-07T22:01:05.092Z,99325.06
2022-08-07T22:03:48.367Z,99325.56
2022-08-07T22:06:30.653Z,99327.22
2022-08-07T22:09:08.203Z,99316.94
2022-08-07T22:12:04.867Z,99314.88
2022-08-07T22:14:59.439Z,99322.44
2022-08-07T22:17:36.756Z,99311.56
2022-08-07T22:20:10.892Z,99297.66
2022-08-07T22:22:57.542Z,99307.66
2022-08-07T22:26:04.958Z,99312.31
2022-08-07T22:28:54.264Z,99313.75
2022-08-07T22:32:03.471Z,99311.19
2022-08-07T22:34:56.075Z,99318.34
2022-08-07T22:38:01.973Z,99323.78
2022-08-07T22:41:13.276Z,99314.94
2022-08-07T22:43:50.332Z,99325.78
2022-08-07T22:47:06.097Z,99327.41
2022-08-07T22:50:41.861Z,99323.19
2022-08-07T22:54:05.239Z,99327.59
2022-08-07T22:57:17.075Z,99326.47
2022-08-07T22:59:52.006Z,99317.44
2022-08-07T23:02:41.273Z,99303.09
2022-08-07T23:06:09.553Z,99299.78
2022-08-07T23:10:04.610Z,99296.06
2022-08-07T23:12:10.195Z,99299.66
2022-08-07T23:14:54.465Z,99299.75
2022-08-07T23:17:34.031Z,99303.56
2022-08-07T23:20:52.602Z,99305.22
2022-08-07T23:24:16.854Z,99312.94
2022-08-07T23:27:15.656Z,99308.19
2022-08-07T23:30:37.278Z,99301.00
2022-08-07T23:34:34.908Z,99300.78
2022-08-07T23:36:43.050Z,99307.16
2022-08-07T23:39:24.487Z,99303.84
2022-08-07T23:42:43.330Z,99300.03
2022-08-07T23:46:01.472Z,99308.56
2022-08-07T23:48:34.267Z,99299.19
2022-08-07T23:53:00.750Z,99297.56
2022-08-07T23:54:46.612Z,99291.19
2022-08-07T23:57:36.845Z,99298.69
